Laredo International, TX

5:15 PM CDT en Septiembre 22, 2014 (GMT -0500)
Cotulla-La Salle County | Change Station
CLOSE
Current Station
Aeropuerto
Location: Cotulla,
Altura: 476 ft
Estaciones meteorológicas cercanas

Alt 476 ft 28.46 °N, 99.22 °W | Updated 22 minutes ago

Despejado
Despejado
93 ° F
Sensación térmica 94 ° F
N
9
Viento Variable Viento desde ENE

Hoy
Alta -- | Baja -- ° F
--% Posibilidad de precipitaciones
Ayer
Alta -- | Baja -- ° F
Precip. -- pul
7:26 AM 7:34 PM
Creciente menguante, 2% visible
Presión 29.98 pul
Visibilidad 10.0 Millas
Nubes Nubes dispersas 8000 ft
Índice de calor 94 ° F
Punto de rocío 63 ° F
Humedad 37%
Precipitaciones 0.00 pul
Espesor de la nieve No disponible.
UV 3 de una escala de 12
Polen 10.30 de una escala de 12
Ozono Buena
PM2.5 Buena
Flu Activity No disponible.
METAR KCOT 222153Z AUTO 07008KT 10SM SCT080 34/17 A3000 RMK AO2 SLP152 T03390172

More Conditions Fewer Conditions

Presión 29.98 pul
Visibilidad 10.0 Millas
Nubes Nubes dispersas 8000 ft
Índice de calor 94 ° F
Punto de rocío 63 ° F
Humedad 37%
Precipitaciones 0.00 pul
Espesor de la nieve No disponible.
UV 3 de una escala de 12
Polen 10.30 de una escala de 12
Ozono Buena
PM2.5 Buena
Flu Activity No disponible.
METAR KCOT 222153Z AUTO 07008KT 10SM SCT080 34/17 A3000 RMK AO2 SLP152 T03390172

More Conditions Fewer Conditions

10-Day Weather Forecast

Almanac

Astronomía

Sep. 22, 2014 Salida Puesta
Hora real 7:26 AM CDT 7:34 PM CDT
Crepúsculo civil 7:03 AM CDT 7:57 PM CDT
Crepúsculo náutico 6:35 AM CDT 8:24 PM CDT
Crepúsculo astronómico 6:08 AM CDT 8:52 PM CDT
Luna 6:02 AM CDT 6:39 PM CDT
Horas de luz 12h 54m
Horas de luz
12h 07m
Tomorrow will be 1m 36s shorter.
Creciente menguante, 2% of the Moon is Illuminated
Hoy
Creciente menguante
Sep 24
Nueva
Oct 1
Cuarto creciente
Oct 8
Luna llena
Oct 15
Cuarto menguante

Extremos de hoy

Máximos del estado Bajos del estado

Community

WunderPhotos

Upload Photos

1,755,539 ¡fotos cargadas!

WunderBlogs® & News

By Dr. Jeff Masters
Director of Meteorology, Weather Underground
By Kari Strenfel
Meteorologist, Weather Underground
By Christopher C. Burt
Weather Historian, Weather Underground
September 22, 2014
September 22, 2014
September 22, 2014

Nearby

Calidad del aire

  Calidad del aire Índice AQ Contaminante
Ayer Buena
OZONE
Ayer Buena
PM2.5
Real Buena
PM2.5
Real Buena
OZONE
Lunes Buena
PM10
Lunes Buena
OZONE
Martes Buena
PM10
Martes Buena
OZONE
Miércoles Buena
PM10
Miércoles Buena
OZONE
Jueves Buena
PM10
Jueves Buena
OZONE

Grosos de nieve

Estación Profundido Altura
No tenemos constancia de nieve nueva.

Actividad de terremotos

Ciudad Distance Mag. Tiempo y dato
No hay informes recientes de la actividad sísmica.
Magnitud mínima muestra es 2,5.

Temperaturas de aguas costeras

Lugar Temperatura
Sin partes meteorológicos de las estaciones

Estaciones meteorológicas cercanas